sensor_id;sensor_type;location;lat;lon;timestamp;P1;durP1;ratioP1;P2;durP2;ratioP2
12567;SDS011;6349;50.904;6.136;2024-03-02T00:01:02;1.33;;;0.80;;
12567;SDS011;6349;50.904;6.136;2024-03-02T00:03:03;1.00;;;0.80;;
12567;SDS011;6349;50.904;6.136;2024-03-02T00:05:04;3.87;;;1.07;;
12567;SDS011;6349;50.904;6.136;2024-03-02T00:07:05;2.70;;;0.80;;
12567;SDS011;6349;50.904;6.136;2024-03-02T00:09:07;1.00;;;0.90;;
12567;SDS011;6349;50.904;6.136;2024-03-02T00:11:11;1.33;;;0.70;;
12567;SDS011;6349;50.904;6.136;2024-03-02T00:13:14;1.67;;;0.77;;
12567;SDS011;6349;50.904;6.136;2024-03-02T00:17:46;0.80;;;0.80;;
12567;SDS011;6349;50.904;6.136;2024-03-02T00:19:53;1.50;;;0.90;;
12567;SDS011;6349;50.904;6.136;2024-03-02T00:21:54;1.67;;;0.80;;
12567;SDS011;6349;50.904;6.136;2024-03-02T00:23:54;0.70;;;0.70;;
12567;SDS011;6349;50.904;6.136;2024-03-02T00:25:55;1.57;;;0.90;;
12567;SDS011;6349;50.904;6.136;2024-03-02T00:27:56;1.43;;;0.60;;
12567;SDS011;6349;50.904;6.136;2024-03-02T00:29:56;2.27;;;0.90;;
12567;SDS011;6349;50.904;6.136;2024-03-02T00:31:57;1.97;;;0.77;;
12567;SDS011;6349;50.904;6.136;2024-03-02T00:33:58;1.73;;;0.90;;
12567;SDS011;6349;50.904;6.136;2024-03-02T00:36:04;0.87;;;0.70;;
12567;SDS011;6349;50.904;6.136;2024-03-02T00:38:06;1.40;;;0.80;;
12567;SDS011;6349;50.904;6.136;2024-03-02T00:40:07;1.17;;;1.00;;
12567;SDS011;6349;50.904;6.136;2024-03-02T00:42:08;1.63;;;0.90;;
12567;SDS011;6349;50.904;6.136;2024-03-02T00:44:11;1.23;;;0.83;;
12567;SDS011;6349;50.904;6.136;2024-03-02T00:46:13;1.63;;;0.90;;
12567;SDS011;6349;50.904;6.136;2024-03-02T00:48:16;1.80;;;1.00;;
12567;SDS011;6349;50.904;6.136;2024-03-02T00:50:16;1.00;;;0.80;;
12567;SDS011;6349;50.904;6.136;2024-03-02T00:52:17;1.97;;;0.90;;
12567;SDS011;6349;50.904;6.136;2024-03-02T00:54:22;1.13;;;0.70;;
12567;SDS011;6349;50.904;6.136;2024-03-02T00:56:25;2.30;;;0.83;;
12567;SDS011;6349;50.904;6.136;2024-03-02T00:58:27;2.40;;;0.90;;
12567;SDS011;6349;50.904;6.136;2024-03-02T01:00:27;1.20;;;0.70;;
12567;SDS011;6349;50.904;6.136;2024-03-02T01:02:28;1.93;;;0.80;;
12567;SDS011;6349;50.904;6.136;2024-03-02T01:04:29;1.33;;;0.80;;
12567;SDS011;6349;50.904;6.136;2024-03-02T01:06:30;1.50;;;0.90;;
12567;SDS011;6349;50.904;6.136;2024-03-02T01:08:30;1.13;;;0.80;;
12567;SDS011;6349;50.904;6.136;2024-03-02T01:10:31;1.13;;;0.73;;
12567;SDS011;6349;50.904;6.136;2024-03-02T01:12:31;1.93;;;1.20;;
12567;SDS011;6349;50.904;6.136;2024-03-02T01:14:33;1.13;;;0.90;;
12567;SDS011;6349;50.904;6.136;2024-03-02T01:16:34;1.33;;;0.83;;
12567;SDS011;6349;50.904;6.136;2024-03-02T01:18:35;0.70;;;0.70;;
12567;SDS011;6349;50.904;6.136;2024-03-02T01:20:36;0.97;;;0.80;;
12567;SDS011;6349;50.904;6.136;2024-03-02T01:22:36;2.43;;;0.90;;
12567;SDS011;6349;50.904;6.136;2024-03-02T01:24:37;0.83;;;0.70;;
12567;SDS011;6349;50.904;6.136;2024-03-02T01:26:38;1.30;;;0.97;;
12567;SDS011;6349;50.904;6.136;2024-03-02T01:28:38;1.20;;;0.80;;
12567;SDS011;6349;50.904;6.136;2024-03-02T01:30:39;1.90;;;0.83;;
12567;SDS011;6349;50.904;6.136;2024-03-02T01:32:40;1.17;;;0.80;;
12567;SDS011;6349;50.904;6.136;2024-03-02T01:34:40;1.30;;;0.70;;
12567;SDS011;6349;50.904;6.136;2024-03-02T01:36:41;1.23;;;0.90;;
12567;SDS011;6349;50.904;6.136;2024-03-02T01:38:41;2.00;;;1.00;;
12567;SDS011;6349;50.904;6.136;2024-03-02T01:40:42;1.30;;;0.70;;
12567;SDS011;6349;50.904;6.136;2024-03-02T01:42:44;1.20;;;0.93;;
12567;SDS011;6349;50.904;6.136;2024-03-02T01:44:45;1.23;;;0.77;;
12567;SDS011;6349;50.904;6.136;2024-03-02T01:46:45;2.27;;;0.83;;
12567;SDS011;6349;50.904;6.136;2024-03-02T01:48:46;1.07;;;0.97;;
12567;SDS011;6349;50.904;6.136;2024-03-02T01:50:47;1.50;;;1.03;;
12567;SDS011;6349;50.904;6.136;2024-03-02T01:52:48;1.53;;;0.90;;
12567;SDS011;6349;50.904;6.136;2024-03-02T01:54:48;1.47;;;0.70;;
12567;SDS011;6349;50.904;6.136;2024-03-02T01:56:49;1.27;;;0.60;;
12567;SDS011;6349;50.904;6.136;2024-03-02T01:58:50;1.20;;;0.70;;
12567;SDS011;6349;50.904;6.136;2024-03-02T02:00:50;1.40;;;0.90;;
12567;SDS011;6349;50.904;6.136;2024-03-02T02:02:51;1.67;;;0.83;;
12567;SDS011;6349;50.904;6.136;2024-03-02T02:04:52;1.10;;;0.80;;
12567;SDS011;6349;50.904;6.136;2024-03-02T02:06:52;0.93;;;0.60;;
12567;SDS011;6349;50.904;6.136;2024-03-02T02:08:53;0.60;;;0.60;;
12567;SDS011;6349;50.904;6.136;2024-03-02T02:10:54;0.80;;;0.50;;
12567;SDS011;6349;50.904;6.136;2024-03-02T02:12:54;0.63;;;0.50;;
12567;SDS011;6349;50.904;6.136;2024-03-02T02:14:55;0.43;;;0.43;;
12567;SDS011;6349;50.904;6.136;2024-03-02T02:16:56;0.50;;;0.50;;
12567;SDS011;6349;50.904;6.136;2024-03-02T02:18:57;0.40;;;0.40;;
12567;SDS011;6349;50.904;6.136;2024-03-02T02:20:57;0.50;;;0.50;;
12567;SDS011;6349;50.904;6.136;2024-03-02T02:22:58;0.70;;;0.37;;
12567;SDS011;6349;50.904;6.136;2024-03-02T02:25:01;0.83;;;0.33;;
12567;SDS011;6349;50.904;6.136;2024-03-02T02:27:01;0.97;;;0.30;;
12567;SDS011;6349;50.904;6.136;2024-03-02T02:29:02;1.57;;;0.60;;
12567;SDS011;6349;50.904;6.136;2024-03-02T02:31:03;0.50;;;0.20;;
12567;SDS011;6349;50.904;6.136;2024-03-02T02:33:03;0.97;;;0.20;;
12567;SDS011;6349;50.904;6.136;2024-03-02T02:35:04;0.83;;;0.30;;
12567;SDS011;6349;50.904;6.136;2024-03-02T02:37:05;0.83;;;0.50;;
12567;SDS011;6349;50.904;6.136;2024-03-02T02:39:06;0.60;;;0.30;;
12567;SDS011;6349;50.904;6.136;2024-03-02T02:41:10;0.20;;;0.20;;
12567;SDS011;6349;50.904;6.136;2024-03-02T02:43:11;0.40;;;0.23;;
12567;SDS011;6349;50.904;6.136;2024-03-02T02:45:11;0.20;;;0.20;;
12567;SDS011;6349;50.904;6.136;2024-03-02T02:47:14;1.13;;;0.30;;
12567;SDS011;6349;50.904;6.136;2024-03-02T02:49:14;0.63;;;0.30;;
12567;SDS011;6349;50.904;6.136;2024-03-02T02:51:15;1.03;;;0.40;;
12567;SDS011;6349;50.904;6.136;2024-03-02T02:53:16;0.30;;;0.27;;
12567;SDS011;6349;50.904;6.136;2024-03-02T02:55:17;0.40;;;0.20;;
12567;SDS011;6349;50.904;6.136;2024-03-02T02:57:18;0.33;;;0.27;;
12567;SDS011;6349;50.904;6.136;2024-03-02T02:59:18;0.97;;;0.30;;
12567;SDS011;6349;50.904;6.136;2024-03-02T03:01:19;0.20;;;0.20;;
12567;SDS011;6349;50.904;6.136;2024-03-02T03:03:19;0.30;;;0.30;;
12567;SDS011;6349;50.904;6.136;2024-03-02T03:05:20;0.30;;;0.30;;
12567;SDS011;6349;50.904;6.136;2024-03-02T03:07:20;0.40;;;0.30;;
12567;SDS011;6349;50.904;6.136;2024-03-02T03:09:21;0.47;;;0.20;;
12567;SDS011;6349;50.904;6.136;2024-03-02T03:11:21;0.30;;;0.30;;
12567;SDS011;6349;50.904;6.136;2024-03-02T03:13:22;0.50;;;0.40;;
12567;SDS011;6349;50.904;6.136;2024-03-02T03:15:23;0.47;;;0.47;;
12567;SDS011;6349;50.904;6.136;2024-03-02T03:17:23;1.07;;;0.37;;
12567;SDS011;6349;50.904;6.136;2024-03-02T03:19:24;0.73;;;0.40;;
12567;SDS011;6349;50.904;6.136;2024-03-02T03:21:25;0.30;;;0.30;;
12567;SDS011;6349;50.904;6.136;2024-03-02T03:23:25;0.60;;;0.50;;
12567;SDS011;6349;50.904;6.136;2024-03-02T03:25:26;0.40;;;0.40;;
12567;SDS011;6349;50.904;6.136;2024-03-02T03:27:26;0.57;;;0.50;;
12567;SDS011;6349;50.904;6.136;2024-03-02T03:29:27;0.40;;;0.40;;
12567;SDS011;6349;50.904;6.136;2024-03-02T03:31:28;0.40;;;0.40;;
12567;SDS011;6349;50.904;6.136;2024-03-02T03:33:29;0.70;;;0.53;;
12567;SDS011;6349;50.904;6.136;2024-03-02T03:35:30;0.70;;;0.70;;
12567;SDS011;6349;50.904;6.136;2024-03-02T03:37:30;0.50;;;0.50;;
12567;SDS011;6349;50.904;6.136;2024-03-02T03:39:34;0.50;;;0.50;;
12567;SDS011;6349;50.904;6.136;2024-03-02T03:41:36;0.67;;;0.60;;
12567;SDS011;6349;50.904;6.136;2024-03-02T03:43:36;0.60;;;0.57;;
12567;SDS011;6349;50.904;6.136;2024-03-02T03:45:37;0.90;;;0.80;;
12567;SDS011;6349;50.904;6.136;2024-03-02T03:47:38;1.33;;;0.67;;
12567;SDS011;6349;50.904;6.136;2024-03-02T03:49:38;1.07;;;0.77;;
12567;SDS011;6349;50.904;6.136;2024-03-02T03:51:39;1.07;;;0.60;;
12567;SDS011;6349;50.904;6.136;2024-03-02T03:53:39;0.77;;;0.60;;
12567;SDS011;6349;50.904;6.136;2024-03-02T03:55:40;1.40;;;0.70;;
12567;SDS011;6349;50.904;6.136;2024-03-02T03:57:41;0.90;;;0.80;;
12567;SDS011;6349;50.904;6.136;2024-03-02T03:59:41;0.87;;;0.70;;
12567;SDS011;6349;50.904;6.136;2024-03-02T04:01:42;1.13;;;0.80;;
12567;SDS011;6349;50.904;6.136;2024-03-02T04:03:43;0.60;;;0.60;;
12567;SDS011;6349;50.904;6.136;2024-03-02T04:05:43;1.20;;;0.90;;
12567;SDS011;6349;50.904;6.136;2024-03-02T04:07:44;2.30;;;0.77;;
12567;SDS011;6349;50.904;6.136;2024-03-02T04:09:44;1.00;;;0.90;;
12567;SDS011;6349;50.904;6.136;2024-03-02T04:11:45;1.33;;;1.00;;
12567;SDS011;6349;50.904;6.136;2024-03-02T04:13:46;1.40;;;0.80;;
12567;SDS011;6349;50.904;6.136;2024-03-02T04:15:46;2.17;;;0.80;;
12567;SDS011;6349;50.904;6.136;2024-03-02T04:17:47;1.23;;;0.83;;
12567;SDS011;6349;50.904;6.136;2024-03-02T04:19:48;1.30;;;0.97;;
12567;SDS011;6349;50.904;6.136;2024-03-02T04:21:48;1.20;;;0.90;;
12567;SDS011;6349;50.904;6.136;2024-03-02T04:23:49;1.03;;;0.90;;
12567;SDS011;6349;50.904;6.136;2024-03-02T04:25:49;1.23;;;0.80;;
12567;SDS011;6349;50.904;6.136;2024-03-02T04:27:50;0.80;;;0.70;;
12567;SDS011;6349;50.904;6.136;2024-03-02T04:29:51;0.80;;;0.80;;
12567;SDS011;6349;50.904;6.136;2024-03-02T04:31:51;1.47;;;0.80;;
12567;SDS011;6349;50.904;6.136;2024-03-02T04:33:52;1.03;;;0.80;;
12567;SDS011;6349;50.904;6.136;2024-03-02T04:35:52;1.27;;;0.60;;
12567;SDS011;6349;50.904;6.136;2024-03-02T04:37:53;0.80;;;0.60;;
12567;SDS011;6349;50.904;6.136;2024-03-02T04:39:53;0.90;;;0.50;;
12567;SDS011;6349;50.904;6.136;2024-03-02T04:41:54;1.00;;;0.90;;
12567;SDS011;6349;50.904;6.136;2024-03-02T04:43:55;0.93;;;0.80;;
12567;SDS011;6349;50.904;6.136;2024-03-02T04:45:55;0.40;;;0.40;;
12567;SDS011;6349;50.904;6.136;2024-03-02T04:47:56;0.67;;;0.60;;
12567;SDS011;6349;50.904;6.136;2024-03-02T04:49:57;1.10;;;0.50;;
12567;SDS011;6349;50.904;6.136;2024-03-02T04:51:57;0.70;;;0.50;;
12567;SDS011;6349;50.904;6.136;2024-03-02T04:53:58;0.53;;;0.47;;
12567;SDS011;6349;50.904;6.136;2024-03-02T04:55:58;0.83;;;0.47;;
12567;SDS011;6349;50.904;6.136;2024-03-02T04:58:18;0.40;;;0.40;;
12567;SDS011;6349;50.904;6.136;2024-03-02T05:00:18;0.30;;;0.30;;
12567;SDS011;6349;50.904;6.136;2024-03-02T05:02:19;0.77;;;0.40;;
12567;SDS011;6349;50.904;6.136;2024-03-02T05:04:20;0.47;;;0.47;;
12567;SDS011;6349;50.904;6.136;2024-03-02T05:06:20;0.43;;;0.43;;
12567;SDS011;6349;50.904;6.136;2024-03-02T05:08:21;1.03;;;0.40;;
12567;SDS011;6349;50.904;6.136;2024-03-02T05:10:22;0.70;;;0.50;;
12567;SDS011;6349;50.904;6.136;2024-03-02T05:12:22;0.50;;;0.20;;
12567;SDS011;6349;50.904;6.136;2024-03-02T05:14:49;0.47;;;0.47;;
12567;SDS011;6349;50.904;6.136;2024-03-02T05:16:50;1.07;;;0.40;;
12567;SDS011;6349;50.904;6.136;2024-03-02T05:18:50;0.67;;;0.67;;
12567;SDS011;6349;50.904;6.136;2024-03-02T05:20:51;0.60;;;0.40;;
12567;SDS011;6349;50.904;6.136;2024-03-02T05:22:51;0.60;;;0.50;;
12567;SDS011;6349;50.904;6.136;2024-03-02T05:24:52;0.80;;;0.40;;
12567;SDS011;6349;50.904;6.136;2024-03-02T05:26:53;2.03;;;0.70;;
12567;SDS011;6349;50.904;6.136;2024-03-02T05:28:54;0.30;;;0.30;;
12567;SDS011;6349;50.904;6.136;2024-03-02T05:30:54;0.23;;;0.23;;
12567;SDS011;6349;50.904;6.136;2024-03-02T05:32:55;0.40;;;0.40;;
12567;SDS011;6349;50.904;6.136;2024-03-02T05:34:55;0.37;;;0.37;;
12567;SDS011;6349;50.904;6.136;2024-03-02T05:36:56;0.90;;;0.40;;
12567;SDS011;6349;50.904;6.136;2024-03-02T05:38:57;0.50;;;0.40;;
12567;SDS011;6349;50.904;6.136;2024-03-02T05:40:58;0.37;;;0.37;;
12567;SDS011;6349;50.904;6.136;2024-03-02T05:42:58;0.97;;;0.40;;
12567;SDS011;6349;50.904;6.136;2024-03-02T05:44:59;0.60;;;0.43;;
12567;SDS011;6349;50.904;6.136;2024-03-02T05:47:00;1.03;;;0.60;;
12567;SDS011;6349;50.904;6.136;2024-03-02T05:49:00;0.23;;;0.23;;
12567;SDS011;6349;50.904;6.136;2024-03-02T05:51:01;0.40;;;0.40;;
12567;SDS011;6349;50.904;6.136;2024-03-02T05:53:02;0.90;;;0.50;;
12567;SDS011;6349;50.904;6.136;2024-03-02T05:55:02;0.53;;;0.40;;
12567;SDS011;6349;50.904;6.136;2024-03-02T05:57:04;1.97;;;0.40;;
12567;SDS011;6349;50.904;6.136;2024-03-02T05:59:32;1.03;;;0.50;;
12567;SDS011;6349;50.904;6.136;2024-03-02T06:01:32;1.20;;;0.50;;
12567;SDS011;6349;50.904;6.136;2024-03-02T06:03:33;0.40;;;0.20;;
12567;SDS011;6349;50.904;6.136;2024-03-02T06:05:33;0.20;;;0.20;;
12567;SDS011;6349;50.904;6.136;2024-03-02T06:07:34;0.27;;;0.27;;
12567;SDS011;6349;50.904;6.136;2024-03-02T06:09:35;1.77;;;0.50;;
12567;SDS011;6349;50.904;6.136;2024-03-02T06:11:35;0.37;;;0.33;;
12567;SDS011;6349;50.904;6.136;2024-03-02T06:13:40;0.53;;;0.40;;
12567;SDS011;6349;50.904;6.136;2024-03-02T06:15:41;0.63;;;0.40;;
12567;SDS011;6349;50.904;6.136;2024-03-02T06:17:41;0.80;;;0.40;;
12567;SDS011;6349;50.904;6.136;2024-03-02T06:19:42;0.93;;;0.30;;
12567;SDS011;6349;50.904;6.136;2024-03-02T06:21:42;0.33;;;0.33;;
12567;SDS011;6349;50.904;6.136;2024-03-02T06:23:43;0.27;;;0.27;;
12567;SDS011;6349;50.904;6.136;2024-03-02T06:25:44;0.30;;;0.20;;
12567;SDS011;6349;50.904;6.136;2024-03-02T06:27:44;0.63;;;0.30;;
12567;SDS011;6349;50.904;6.136;2024-03-02T06:29:45;0.77;;;0.40;;
12567;SDS011;6349;50.904;6.136;2024-03-02T06:31:45;0.93;;;0.30;;
12567;SDS011;6349;50.904;6.136;2024-03-02T06:33:46;0.30;;;0.30;;
12567;SDS011;6349;50.904;6.136;2024-03-02T06:35:47;0.40;;;0.20;;
12567;SDS011;6349;50.904;6.136;2024-03-02T06:37:49;0.30;;;0.30;;
12567;SDS011;6349;50.904;6.136;2024-03-02T06:39:49;0.50;;;0.20;;
12567;SDS011;6349;50.904;6.136;2024-03-02T06:41:50;0.30;;;0.30;;
12567;SDS011;6349;50.904;6.136;2024-03-02T06:43:51;0.67;;;0.40;;
12567;SDS011;6349;50.904;6.136;2024-03-02T06:45:59;0.30;;;0.27;;
12567;SDS011;6349;50.904;6.136;2024-03-02T06:47:59;0.13;;;0.13;;
12567;SDS011;6349;50.904;6.136;2024-03-02T06:50:00;0.90;;;0.50;;
12567;SDS011;6349;50.904;6.136;2024-03-02T06:52:00;0.77;;;0.20;;
12567;SDS011;6349;50.904;6.136;2024-03-02T06:54:01;0.60;;;0.30;;
12567;SDS011;6349;50.904;6.136;2024-03-02T06:56:02;0.77;;;0.30;;
12567;SDS011;6349;50.904;6.136;2024-03-02T06:58:04;0.33;;;0.20;;
12567;SDS011;6349;50.904;6.136;2024-03-02T07:00:05;0.20;;;0.20;;
12567;SDS011;6349;50.904;6.136;2024-03-02T07:02:08;0.87;;;0.47;;
12567;SDS011;6349;50.904;6.136;2024-03-02T07:04:09;1.00;;;0.40;;
12567;SDS011;6349;50.904;6.136;2024-03-02T07:06:10;1.30;;;0.50;;
12567;SDS011;6349;50.904;6.136;2024-03-02T07:08:10;0.47;;;0.40;;
12567;SDS011;6349;50.904;6.136;2024-03-02T07:10:11;2.67;;;0.40;;
12567;SDS011;6349;50.904;6.136;2024-03-02T07:12:11;1.63;;;0.40;;
12567;SDS011;6349;50.904;6.136;2024-03-02T07:14:12;0.60;;;0.40;;
12567;SDS011;6349;50.904;6.136;2024-03-02T07:16:12;0.80;;;0.40;;
12567;SDS011;6349;50.904;6.136;2024-03-02T07:18:28;0.30;;;0.23;;
12567;SDS011;6349;50.904;6.136;2024-03-02T07:20:29;0.43;;;0.30;;
12567;SDS011;6349;50.904;6.136;2024-03-02T07:22:29;1.10;;;0.27;;
12567;SDS011;6349;50.904;6.136;2024-03-02T07:24:30;2.00;;;0.40;;
12567;SDS011;6349;50.904;6.136;2024-03-02T07:26:30;0.60;;;0.40;;
12567;SDS011;6349;50.904;6.136;2024-03-02T07:28:31;1.23;;;0.50;;
12567;SDS011;6349;50.904;6.136;2024-03-02T07:30:32;0.57;;;0.50;;
12567;SDS011;6349;50.904;6.136;2024-03-02T07:32:33;1.13;;;0.33;;
12567;SDS011;6349;50.904;6.136;2024-03-02T07:34:34;0.40;;;0.40;;
12567;SDS011;6349;50.904;6.136;2024-03-02T07:36:35;0.50;;;0.40;;
12567;SDS011;6349;50.904;6.136;2024-03-02T07:38:36;1.10;;;0.50;;
12567;SDS011;6349;50.904;6.136;2024-03-02T07:40:37;0.43;;;0.30;;
12567;SDS011;6349;50.904;6.136;2024-03-02T07:42:38;1.43;;;0.30;;
12567;SDS011;6349;50.904;6.136;2024-03-02T07:44:39;0.87;;;0.50;;
12567;SDS011;6349;50.904;6.136;2024-03-02T07:46:41;1.60;;;0.60;;
12567;SDS011;6349;50.904;6.136;2024-03-02T07:48:43;0.73;;;0.40;;
12567;SDS011;6349;50.904;6.136;2024-03-02T07:50:43;0.40;;;0.30;;
12567;SDS011;6349;50.904;6.136;2024-03-02T07:52:44;0.50;;;0.40;;
12567;SDS011;6349;50.904;6.136;2024-03-02T07:54:45;1.30;;;0.47;;
12567;SDS011;6349;50.904;6.136;2024-03-02T07:56:46;0.57;;;0.50;;
12567;SDS011;6349;50.904;6.136;2024-03-02T07:58:50;0.97;;;0.50;;
12567;SDS011;6349;50.904;6.136;2024-03-02T08:00:51;0.80;;;0.50;;
12567;SDS011;6349;50.904;6.136;2024-03-02T08:02:51;0.70;;;0.40;;
12567;SDS011;6349;50.904;6.136;2024-03-02T08:04:52;0.70;;;0.40;;
12567;SDS011;6349;50.904;6.136;2024-03-02T08:06:53;1.33;;;0.70;;
12567;SDS011;6349;50.904;6.136;2024-03-02T08:08:55;0.70;;;0.30;;
12567;SDS011;6349;50.904;6.136;2024-03-02T08:10:56;0.73;;;0.50;;
12567;SDS011;6349;50.904;6.136;2024-03-02T08:12:57;0.90;;;0.60;;
12567;SDS011;6349;50.904;6.136;2024-03-02T08:14:58;3.97;;;0.73;;
12567;SDS011;6349;50.904;6.136;2024-03-02T08:16:59;2.53;;;0.87;;
12567;SDS011;6349;50.904;6.136;2024-03-02T08:19:01;0.70;;;0.60;;
12567;SDS011;6349;50.904;6.136;2024-03-02T08:21:03;0.60;;;0.60;;
12567;SDS011;6349;50.904;6.136;2024-03-02T08:23:04;0.63;;;0.60;;
12567;SDS011;6349;50.904;6.136;2024-03-02T08:25:05;0.70;;;0.40;;
12567;SDS011;6349;50.904;6.136;2024-03-02T08:27:06;0.97;;;0.50;;
12567;SDS011;6349;50.904;6.136;2024-03-02T08:29:10;0.50;;;0.50;;
12567;SDS011;6349;50.904;6.136;2024-03-02T08:31:11;1.27;;;0.60;;
12567;SDS011;6349;50.904;6.136;2024-03-02T08:33:12;1.87;;;0.80;;
12567;SDS011;6349;50.904;6.136;2024-03-02T08:35:12;0.63;;;0.60;;
12567;SDS011;6349;50.904;6.136;2024-03-02T08:37:13;1.00;;;0.60;;
12567;SDS011;6349;50.904;6.136;2024-03-02T08:39:14;1.63;;;0.57;;
12567;SDS011;6349;50.904;6.136;2024-03-02T08:41:19;1.33;;;0.77;;
12567;SDS011;6349;50.904;6.136;2024-03-02T08:43:20;1.90;;;0.73;;
12567;SDS011;6349;50.904;6.136;2024-03-02T08:45:22;2.53;;;0.80;;
12567;SDS011;6349;50.904;6.136;2024-03-02T08:47:23;1.47;;;0.73;;
12567;SDS011;6349;50.904;6.136;2024-03-02T08:49:23;2.43;;;0.90;;
12567;SDS011;6349;50.904;6.136;2024-03-02T08:51:24;1.50;;;0.63;;
12567;SDS011;6349;50.904;6.136;2024-03-02T08:53:24;1.30;;;0.80;;
12567;SDS011;6349;50.904;6.136;2024-03-02T08:55:25;2.17;;;0.90;;
12567;SDS011;6349;50.904;6.136;2024-03-02T08:57:25;2.57;;;1.00;;
12567;SDS011;6349;50.904;6.136;2024-03-02T08:59:26;1.40;;;0.90;;
12567;SDS011;6349;50.904;6.136;2024-03-02T09:01:27;1.40;;;0.80;;
12567;SDS011;6349;50.904;6.136;2024-03-02T09:03:28;1.60;;;0.80;;
12567;SDS011;6349;50.904;6.136;2024-03-02T09:05:29;2.23;;;0.70;;
12567;SDS011;6349;50.904;6.136;2024-03-02T09:07:29;1.50;;;0.77;;
12567;SDS011;6349;50.904;6.136;2024-03-02T09:09:30;1.73;;;0.90;;
12567;SDS011;6349;50.904;6.136;2024-03-02T09:11:31;1.87;;;0.80;;
12567;SDS011;6349;50.904;6.136;2024-03-02T09:13:32;1.23;;;1.00;;
12567;SDS011;6349;50.904;6.136;2024-03-02T09:15:33;1.17;;;0.80;;
12567;SDS011;6349;50.904;6.136;2024-03-02T09:17:37;1.33;;;0.77;;
12567;SDS011;6349;50.904;6.136;2024-03-02T09:19:38;2.63;;;0.73;;
12567;SDS011;6349;50.904;6.136;2024-03-02T09:21:39;2.13;;;0.87;;
12567;SDS011;6349;50.904;6.136;2024-03-02T09:23:39;1.93;;;0.97;;
12567;SDS011;6349;50.904;6.136;2024-03-02T09:25:40;2.20;;;0.93;;
12567;SDS011;6349;50.904;6.136;2024-03-02T09:27:41;1.03;;;0.73;;
12567;SDS011;6349;50.904;6.136;2024-03-02T09:29:41;1.30;;;0.57;;
12567;SDS011;6349;50.904;6.136;2024-03-02T09:31:42;0.77;;;0.77;;
12567;SDS011;6349;50.904;6.136;2024-03-02T09:33:43;1.33;;;0.70;;
12567;SDS011;6349;50.904;6.136;2024-03-02T09:35:44;1.90;;;0.73;;
12567;SDS011;6349;50.904;6.136;2024-03-02T09:37:44;2.40;;;0.70;;
12567;SDS011;6349;50.904;6.136;2024-03-02T09:39:45;1.40;;;0.80;;
12567;SDS011;6349;50.904;6.136;2024-03-02T09:41:45;1.47;;;0.70;;
12567;SDS011;6349;50.904;6.136;2024-03-02T09:43:48;1.73;;;0.80;;
12567;SDS011;6349;50.904;6.136;2024-03-02T09:45:50;3.47;;;0.90;;
12567;SDS011;6349;50.904;6.136;2024-03-02T09:47:51;0.47;;;0.40;;
12567;SDS011;6349;50.904;6.136;2024-03-02T09:49:51;1.27;;;0.50;;
12567;SDS011;6349;50.904;6.136;2024-03-02T09:51:52;0.67;;;0.50;;
12567;SDS011;6349;50.904;6.136;2024-03-02T09:53:54;1.30;;;0.60;;
12567;SDS011;6349;50.904;6.136;2024-03-02T09:55:55;1.47;;;0.70;;
12567;SDS011;6349;50.904;6.136;2024-03-02T09:57:56;1.37;;;0.60;;
12567;SDS011;6349;50.904;6.136;2024-03-02T09:59:56;1.20;;;0.90;;
12567;SDS011;6349;50.904;6.136;2024-03-02T10:02:01;2.10;;;0.90;;
12567;SDS011;6349;50.904;6.136;2024-03-02T10:04:03;2.40;;;0.80;;
12567;SDS011;6349;50.904;6.136;2024-03-02T10:06:20;3.13;;;0.70;;
12567;SDS011;6349;50.904;6.136;2024-03-02T10:08:32;2.03;;;0.80;;
12567;SDS011;6349;50.904;6.136;2024-03-02T10:10:43;2.60;;;0.63;;
12567;SDS011;6349;50.904;6.136;2024-03-02T10:12:44;2.20;;;1.03;;
12567;SDS011;6349;50.904;6.136;2024-03-02T10:14:44;1.47;;;0.77;;
12567;SDS011;6349;50.904;6.136;2024-03-02T10:16:48;0.97;;;0.57;;
12567;SDS011;6349;50.904;6.136;2024-03-02T10:18:49;1.30;;;0.70;;
12567;SDS011;6349;50.904;6.136;2024-03-02T10:20:49;1.80;;;0.70;;
12567;SDS011;6349;50.904;6.136;2024-03-02T10:22:50;0.87;;;0.70;;
12567;SDS011;6349;50.904;6.136;2024-03-02T10:24:50;1.53;;;0.83;;
12567;SDS011;6349;50.904;6.136;2024-03-02T10:26:51;1.40;;;0.67;;
12567;SDS011;6349;50.904;6.136;2024-03-02T10:28:52;1.93;;;0.80;;
12567;SDS011;6349;50.904;6.136;2024-03-02T10:30:59;2.87;;;0.80;;
12567;SDS011;6349;50.904;6.136;2024-03-02T10:33:03;1.27;;;0.83;;
12567;SDS011;6349;50.904;6.136;2024-03-02T10:35:05;2.90;;;0.90;;
12567;SDS011;6349;50.904;6.136;2024-03-02T10:37:06;1.67;;;0.80;;
12567;SDS011;6349;50.904;6.136;2024-03-02T10:39:08;1.83;;;0.80;;
12567;SDS011;6349;50.904;6.136;2024-03-02T10:41:09;1.00;;;0.60;;
12567;SDS011;6349;50.904;6.136;2024-03-02T10:43:09;2.27;;;0.60;;
12567;SDS011;6349;50.904;6.136;2024-03-02T10:45:12;1.73;;;0.80;;
12567;SDS011;6349;50.904;6.136;2024-03-02T10:47:16;2.27;;;0.77;;
12567;SDS011;6349;50.904;6.136;2024-03-02T10:49:19;1.67;;;0.80;;
12567;SDS011;6349;50.904;6.136;2024-03-02T10:51:22;1.50;;;0.60;;
12567;SDS011;6349;50.904;6.136;2024-03-02T10:53:23;2.03;;;0.80;;
12567;SDS011;6349;50.904;6.136;2024-03-02T10:55:23;1.93;;;1.00;;
12567;SDS011;6349;50.904;6.136;2024-03-02T10:57:24;2.33;;;0.60;;
12567;SDS011;6349;50.904;6.136;2024-03-02T10:59:27;1.70;;;0.80;;
12567;SDS011;6349;50.904;6.136;2024-03-02T11:01:32;1.50;;;0.90;;
12567;SDS011;6349;50.904;6.136;2024-03-02T11:03:35;2.07;;;0.90;;
12567;SDS011;6349;50.904;6.136;2024-03-02T11:05:40;2.17;;;1.00;;
12567;SDS011;6349;50.904;6.136;2024-03-02T11:07:44;2.80;;;0.77;;
12567;SDS011;6349;50.904;6.136;2024-03-02T11:09:48;1.83;;;0.90;;
12567;SDS011;6349;50.904;6.136;2024-03-02T11:12:19;1.17;;;0.60;;
12567;SDS011;6349;50.904;6.136;2024-03-02T11:14:23;2.37;;;1.00;;
12567;SDS011;6349;50.904;6.136;2024-03-02T11:16:32;2.47;;;0.80;;
12567;SDS011;6349;50.904;6.136;2024-03-02T11:18:35;1.97;;;0.90;;
12567;SDS011;6349;50.904;6.136;2024-03-02T11:20:40;3.70;;;1.07;;
12567;SDS011;6349;50.904;6.136;2024-03-02T11:22:41;2.97;;;0.70;;
12567;SDS011;6349;50.904;6.136;2024-03-02T11:24:47;2.00;;;0.60;;
12567;SDS011;6349;50.904;6.136;2024-03-02T11:26:49;1.20;;;0.60;;
12567;SDS011;6349;50.904;6.136;2024-03-02T11:28:53;1.00;;;0.70;;
12567;SDS011;6349;50.904;6.136;2024-03-02T11:30:53;1.17;;;0.80;;
12567;SDS011;6349;50.904;6.136;2024-03-02T11:32:55;1.90;;;0.70;;
12567;SDS011;6349;50.904;6.136;2024-03-02T11:34:56;0.90;;;0.67;;
12567;SDS011;6349;50.904;6.136;2024-03-02T11:37:06;1.33;;;0.70;;
12567;SDS011;6349;50.904;6.136;2024-03-02T11:39:06;1.30;;;0.70;;
12567;SDS011;6349;50.904;6.136;2024-03-02T11:41:07;2.93;;;0.67;;
12567;SDS011;6349;50.904;6.136;2024-03-02T11:43:09;1.97;;;0.60;;
12567;SDS011;6349;50.904;6.136;2024-03-02T11:45:10;1.00;;;0.80;;
12567;SDS011;6349;50.904;6.136;2024-03-02T11:47:12;1.30;;;0.70;;
12567;SDS011;6349;50.904;6.136;2024-03-02T11:49:14;1.40;;;0.80;;
12567;SDS011;6349;50.904;6.136;2024-03-02T11:51:15;1.47;;;0.70;;
12567;SDS011;6349;50.904;6.136;2024-03-02T11:53:16;1.10;;;0.80;;
12567;SDS011;6349;50.904;6.136;2024-03-02T11:55:18;1.43;;;0.50;;
12567;SDS011;6349;50.904;6.136;2024-03-02T11:57:20;1.17;;;0.50;;
12567;SDS011;6349;50.904;6.136;2024-03-02T11:59:26;1.20;;;0.70;;
12567;SDS011;6349;50.904;6.136;2024-03-02T12:01:27;1.63;;;0.80;;
12567;SDS011;6349;50.904;6.136;2024-03-02T12:03:27;0.87;;;0.70;;
12567;SDS011;6349;50.904;6.136;2024-03-02T12:05:29;0.80;;;0.80;;
12567;SDS011;6349;50.904;6.136;2024-03-02T12:07:30;1.30;;;0.80;;
12567;SDS011;6349;50.904;6.136;2024-03-02T12:09:32;1.77;;;0.77;;
12567;SDS011;6349;50.904;6.136;2024-03-02T12:11:32;1.27;;;0.80;;
12567;SDS011;6349;50.904;6.136;2024-03-02T12:13:33;1.13;;;0.80;;
12567;SDS011;6349;50.904;6.136;2024-03-02T12:15:34;2.33;;;0.93;;
12567;SDS011;6349;50.904;6.136;2024-03-02T12:17:39;2.20;;;1.00;;
12567;SDS011;6349;50.904;6.136;2024-03-02T12:19:39;1.80;;;0.70;;
12567;SDS011;6349;50.904;6.136;2024-03-02T12:21:40;1.17;;;0.87;;
12567;SDS011;6349;50.904;6.136;2024-03-02T12:23:40;1.57;;;1.00;;
12567;SDS011;6349;50.904;6.136;2024-03-02T12:25:41;0.90;;;0.80;;